sensor_id;sensor_type;location;lat;lon;timestamp;temperature;humidity
8939;DHT22;4504;48.810;9.172;2023-05-16T00:01:59;13.50;99.90
8939;DHT22;4504;48.810;9.172;2023-05-16T00:04:26;13.50;99.90
8939;DHT22;4504;48.810;9.172;2023-05-16T00:06:55;13.50;99.90
8939;DHT22;4504;48.810;9.172;2023-05-16T00:09:22;13.50;99.90
8939;DHT22;4504;48.810;9.172;2023-05-16T00:11:49;13.50;99.90
8939;DHT22;4504;48.810;9.172;2023-05-16T00:14:16;13.50;99.90
8939;DHT22;4504;48.810;9.172;2023-05-16T00:16:43;13.60;99.90
8939;DHT22;4504;48.810;9.172;2023-05-16T00:19:11;13.60;99.90
8939;DHT22;4504;48.810;9.172;2023-05-16T00:21:38;13.60;99.90
8939;DHT22;4504;48.810;9.172;2023-05-16T00:24:07;13.60;99.90
8939;DHT22;4504;48.810;9.172;2023-05-16T00:26:34;13.60;99.90
8939;DHT22;4504;48.810;9.172;2023-05-16T00:29:01;13.40;99.90
8939;DHT22;4504;48.810;9.172;2023-05-16T00:31:29;13.40;99.90
8939;DHT22;4504;48.810;9.172;2023-05-16T00:33:56;13.30;99.90
8939;DHT22;4504;48.810;9.172;2023-05-16T00:36:24;13.30;99.90
8939;DHT22;4504;48.810;9.172;2023-05-16T00:38:51;13.30;99.90
8939;DHT22;4504;48.810;9.172;2023-05-16T00:41:19;13.20;99.90
8939;DHT22;4504;48.810;9.172;2023-05-16T00:43:46;13.20;99.90
8939;DHT22;4504;48.810;9.172;2023-05-16T00:46:13;13.10;99.90
8939;DHT22;4504;48.810;9.172;2023-05-16T00:48:40;13.00;99.90
8939;DHT22;4504;48.810;9.172;2023-05-16T00:51:07;13.00;99.90
8939;DHT22;4504;48.810;9.172;2023-05-16T00:53:34;13.00;99.90
8939;DHT22;4504;48.810;9.172;2023-05-16T00:56:02;13.00;99.90
8939;DHT22;4504;48.810;9.172;2023-05-16T00:58:32;12.90;99.90
8939;DHT22;4504;48.810;9.172;2023-05-16T01:00:59;12.90;99.90
8939;DHT22;4504;48.810;9.172;2023-05-16T01:03:28;13.00;99.90
8939;DHT22;4504;48.810;9.172;2023-05-16T01:05:56;13.00;99.90
8939;DHT22;4504;48.810;9.172;2023-05-16T01:08:23;13.00;99.90
8939;DHT22;4504;48.810;9.172;2023-05-16T01:10:59;13.00;99.90
8939;DHT22;4504;48.810;9.172;2023-05-16T01:13:34;13.00;99.90
8939;DHT22;4504;48.810;9.172;2023-05-16T01:16:08;12.90;99.90
8939;DHT22;4504;48.810;9.172;2023-05-16T01:18:40;12.90;99.90
8939;DHT22;4504;48.810;9.172;2023-05-16T01:21:12;12.80;99.90
8939;DHT22;4504;48.810;9.172;2023-05-16T01:23:50;12.80;99.90
8939;DHT22;4504;48.810;9.172;2023-05-16T01:26:20;12.70;99.90
8939;DHT22;4504;48.810;9.172;2023-05-16T01:28:49;12.80;99.90
8939;DHT22;4504;48.810;9.172;2023-05-16T01:31:18;12.70;99.90
8939;DHT22;4504;48.810;9.172;2023-05-16T01:33:45;12.60;99.90
8939;DHT22;4504;48.810;9.172;2023-05-16T01:36:23;12.50;99.90
8939;DHT22;4504;48.810;9.172;2023-05-16T01:38:58;12.40;99.90
8939;DHT22;4504;48.810;9.172;2023-05-16T01:41:33;12.30;99.90
8939;DHT22;4504;48.810;9.172;2023-05-16T01:44:06;12.30;99.90
8939;DHT22;4504;48.810;9.172;2023-05-16T01:46:39;12.20;99.90
8939;DHT22;4504;48.810;9.172;2023-05-16T01:49:14;12.20;99.90
8939;DHT22;4504;48.810;9.172;2023-05-16T01:51:45;12.20;99.90
8939;DHT22;4504;48.810;9.172;2023-05-16T01:54:17;12.10;99.90
8939;DHT22;4504;48.810;9.172;2023-05-16T01:56:51;12.10;99.90
8939;DHT22;4504;48.810;9.172;2023-05-16T01:59:19;12.10;99.90
8939;DHT22;4504;48.810;9.172;2023-05-16T02:01:47;12.20;99.90
8939;DHT22;4504;48.810;9.172;2023-05-16T02:04:14;12.20;99.90
8939;DHT22;4504;48.810;9.172;2023-05-16T02:06:41;12.20;99.90
8939;DHT22;4504;48.810;9.172;2023-05-16T02:09:08;12.20;99.90
8939;DHT22;4504;48.810;9.172;2023-05-16T02:11:39;12.10;99.90
8939;DHT22;4504;48.810;9.172;2023-05-16T02:14:07;12.20;99.90
8939;DHT22;4504;48.810;9.172;2023-05-16T02:16:35;12.10;99.90
8939;DHT22;4504;48.810;9.172;2023-05-16T02:19:02;12.10;99.90
8939;DHT22;4504;48.810;9.172;2023-05-16T02:21:30;12.10;99.90
8939;DHT22;4504;48.810;9.172;2023-05-16T02:23:57;12.10;99.90
8939;DHT22;4504;48.810;9.172;2023-05-16T02:26:26;12.20;99.90
8939;DHT22;4504;48.810;9.172;2023-05-16T02:28:53;12.20;99.90
8939;DHT22;4504;48.810;9.172;2023-05-16T02:31:28;12.20;99.90
8939;DHT22;4504;48.810;9.172;2023-05-16T02:33:56;12.20;99.90
8939;DHT22;4504;48.810;9.172;2023-05-16T02:36:23;12.20;99.90
8939;DHT22;4504;48.810;9.172;2023-05-16T02:38:50;12.20;99.90
8939;DHT22;4504;48.810;9.172;2023-05-16T02:41:17;12.20;99.90
8939;DHT22;4504;48.810;9.172;2023-05-16T02:43:44;12.20;99.90
8939;DHT22;4504;48.810;9.172;2023-05-16T02:46:24;12.20;99.90
8939;DHT22;4504;48.810;9.172;2023-05-16T02:48:54;12.10;99.90
8939;DHT22;4504;48.810;9.172;2023-05-16T02:51:23;12.00;99.90
8939;DHT22;4504;48.810;9.172;2023-05-16T02:53:50;11.90;99.90
8939;DHT22;4504;48.810;9.172;2023-05-16T02:56:18;11.90;99.90
8939;DHT22;4504;48.810;9.172;2023-05-16T02:58:48;12.00;99.90
8939;DHT22;4504;48.810;9.172;2023-05-16T03:01:15;11.90;99.90
8939;DHT22;4504;48.810;9.172;2023-05-16T03:03:43;11.90;99.90
8939;DHT22;4504;48.810;9.172;2023-05-16T03:06:11;12.00;99.90
8939;DHT22;4504;48.810;9.172;2023-05-16T03:08:38;11.90;99.90
8939;DHT22;4504;48.810;9.172;2023-05-16T03:11:05;11.90;99.90
8939;DHT22;4504;48.810;9.172;2023-05-16T03:13:32;12.00;99.90
8939;DHT22;4504;48.810;9.172;2023-05-16T03:15:59;12.00;99.90
8939;DHT22;4504;48.810;9.172;2023-05-16T03:18:26;11.90;99.90
8939;DHT22;4504;48.810;9.172;2023-05-16T03:20:53;11.80;99.90
8939;DHT22;4504;48.810;9.172;2023-05-16T03:23:24;11.80;99.90
8939;DHT22;4504;48.810;9.172;2023-05-16T03:25:51;11.80;99.90
8939;DHT22;4504;48.810;9.172;2023-05-16T03:28:20;11.80;99.90
8939;DHT22;4504;48.810;9.172;2023-05-16T03:30:47;11.80;99.90
8939;DHT22;4504;48.810;9.172;2023-05-16T03:33:14;11.80;99.90
8939;DHT22;4504;48.810;9.172;2023-05-16T03:35:41;11.80;99.90
8939;DHT22;4504;48.810;9.172;2023-05-16T03:38:08;11.70;99.90
8939;DHT22;4504;48.810;9.172;2023-05-16T03:40:36;11.70;99.90
8939;DHT22;4504;48.810;9.172;2023-05-16T03:43:03;11.70;99.90
8939;DHT22;4504;48.810;9.172;2023-05-16T03:45:31;11.80;99.90
8939;DHT22;4504;48.810;9.172;2023-05-16T03:47:58;11.80;99.90
8939;DHT22;4504;48.810;9.172;2023-05-16T03:50:25;11.70;99.90
8939;DHT22;4504;48.810;9.172;2023-05-16T03:52:51;11.70;99.90
8939;DHT22;4504;48.810;9.172;2023-05-16T03:55:19;11.80;99.90
8939;DHT22;4504;48.810;9.172;2023-05-16T03:57:47;11.80;99.90
8939;DHT22;4504;48.810;9.172;2023-05-16T04:00:15;11.80;99.90
8939;DHT22;4504;48.810;9.172;2023-05-16T04:02:42;11.80;99.90
8939;DHT22;4504;48.810;9.172;2023-05-16T04:05:10;11.90;99.90
8939;DHT22;4504;48.810;9.172;2023-05-16T04:07:38;12.00;99.90
8939;DHT22;4504;48.810;9.172;2023-05-16T04:10:06;12.00;99.90
8939;DHT22;4504;48.810;9.172;2023-05-16T04:12:33;11.90;99.90
8939;DHT22;4504;48.810;9.172;2023-05-16T04:15:01;11.90;99.90
8939;DHT22;4504;48.810;9.172;2023-05-16T04:17:28;11.90;99.90
8939;DHT22;4504;48.810;9.172;2023-05-16T04:19:56;11.90;99.90
8939;DHT22;4504;48.810;9.172;2023-05-16T04:22:23;12.00;99.90
8939;DHT22;4504;48.810;9.172;2023-05-16T04:24:50;12.00;99.90
8939;DHT22;4504;48.810;9.172;2023-05-16T04:27:17;11.90;99.90
8939;DHT22;4504;48.810;9.172;2023-05-16T04:29:44;11.90;99.90
8939;DHT22;4504;48.810;9.172;2023-05-16T04:32:13;11.90;99.90
8939;DHT22;4504;48.810;9.172;2023-05-16T04:34:40;11.90;99.90
8939;DHT22;4504;48.810;9.172;2023-05-16T04:37:08;12.00;99.90
8939;DHT22;4504;48.810;9.172;2023-05-16T04:39:36;12.00;99.90
8939;DHT22;4504;48.810;9.172;2023-05-16T04:42:04;12.00;99.90
8939;DHT22;4504;48.810;9.172;2023-05-16T04:44:31;12.00;99.90
8939;DHT22;4504;48.810;9.172;2023-05-16T04:46:59;12.00;99.90
8939;DHT22;4504;48.810;9.172;2023-05-16T04:49:27;12.10;99.90
8939;DHT22;4504;48.810;9.172;2023-05-16T04:51:54;12.10;99.90
8939;DHT22;4504;48.810;9.172;2023-05-16T04:54:21;12.20;99.90
8939;DHT22;4504;48.810;9.172;2023-05-16T04:56:48;12.20;99.90
8939;DHT22;4504;48.810;9.172;2023-05-16T04:59:15;12.10;99.90
8939;DHT22;4504;48.810;9.172;2023-05-16T05:01:42;12.00;99.90
8939;DHT22;4504;48.810;9.172;2023-05-16T05:04:09;12.00;99.90
8939;DHT22;4504;48.810;9.172;2023-05-16T05:06:38;12.00;99.90
8939;DHT22;4504;48.810;9.172;2023-05-16T05:09:05;12.10;99.90
8939;DHT22;4504;48.810;9.172;2023-05-16T05:11:33;12.10;99.90
8939;DHT22;4504;48.810;9.172;2023-05-16T05:14:00;12.00;99.90
8939;DHT22;4504;48.810;9.172;2023-05-16T05:16:27;12.00;99.90
8939;DHT22;4504;48.810;9.172;2023-05-16T05:18:54;12.10;99.90
8939;DHT22;4504;48.810;9.172;2023-05-16T05:21:21;12.10;99.90
8939;DHT22;4504;48.810;9.172;2023-05-16T05:23:51;12.10;99.90
8939;DHT22;4504;48.810;9.172;2023-05-16T05:26:18;12.10;99.90
8939;DHT22;4504;48.810;9.172;2023-05-16T05:28:47;12.10;99.90
8939;DHT22;4504;48.810;9.172;2023-05-16T05:31:14;12.00;99.90
8939;DHT22;4504;48.810;9.172;2023-05-16T05:33:41;12.00;99.90
8939;DHT22;4504;48.810;9.172;2023-05-16T05:36:08;12.10;99.90
8939;DHT22;4504;48.810;9.172;2023-05-16T05:38:35;12.10;99.90
8939;DHT22;4504;48.810;9.172;2023-05-16T05:41:04;12.10;99.90
8939;DHT22;4504;48.810;9.172;2023-05-16T05:43:31;12.10;99.90
8939;DHT22;4504;48.810;9.172;2023-05-16T05:45:58;12.10;99.90
8939;DHT22;4504;48.810;9.172;2023-05-16T05:48:25;12.10;99.90
8939;DHT22;4504;48.810;9.172;2023-05-16T05:50:54;12.10;99.90
8939;DHT22;4504;48.810;9.172;2023-05-16T05:53:21;12.10;99.90
8939;DHT22;4504;48.810;9.172;2023-05-16T05:55:48;12.20;99.90
8939;DHT22;4504;48.810;9.172;2023-05-16T05:58:17;12.20;99.90
8939;DHT22;4504;48.810;9.172;2023-05-16T06:00:44;12.20;99.90
8939;DHT22;4504;48.810;9.172;2023-05-16T06:03:11;12.20;99.90
8939;DHT22;4504;48.810;9.172;2023-05-16T06:05:39;12.20;99.90
8939;DHT22;4504;48.810;9.172;2023-05-16T06:08:06;12.20;99.90
8939;DHT22;4504;48.810;9.172;2023-05-16T06:10:33;12.20;99.90
8939;DHT22;4504;48.810;9.172;2023-05-16T06:13:00;12.30;99.90
8939;DHT22;4504;48.810;9.172;2023-05-16T06:15:28;12.30;99.90
8939;DHT22;4504;48.810;9.172;2023-05-16T06:17:55;12.40;99.90
8939;DHT22;4504;48.810;9.172;2023-05-16T06:20:22;12.40;99.90
8939;DHT22;4504;48.810;9.172;2023-05-16T06:22:49;12.40;99.90
8939;DHT22;4504;48.810;9.172;2023-05-16T06:25:16;12.40;99.90
8939;DHT22;4504;48.810;9.172;2023-05-16T06:27:44;12.40;99.90
8939;DHT22;4504;48.810;9.172;2023-05-16T06:30:11;12.40;99.90
8939;DHT22;4504;48.810;9.172;2023-05-16T06:32:39;12.40;99.90
8939;DHT22;4504;48.810;9.172;2023-05-16T06:35:07;12.50;99.90
8939;DHT22;4504;48.810;9.172;2023-05-16T06:37:34;12.60;99.90
8939;DHT22;4504;48.810;9.172;2023-05-16T06:40:01;12.40;99.90
8939;DHT22;4504;48.810;9.172;2023-05-16T06:42:29;12.30;99.90
8939;DHT22;4504;48.810;9.172;2023-05-16T06:44:56;12.40;99.90
8939;DHT22;4504;48.810;9.172;2023-05-16T06:47:23;12.40;99.90
8939;DHT22;4504;48.810;9.172;2023-05-16T06:49:52;12.40;99.90
8939;DHT22;4504;48.810;9.172;2023-05-16T06:52:20;12.40;99.90
8939;DHT22;4504;48.810;9.172;2023-05-16T06:54:47;12.30;99.90
8939;DHT22;4504;48.810;9.172;2023-05-16T06:57:14;12.30;99.90
8939;DHT22;4504;48.810;9.172;2023-05-16T06:59:41;12.30;99.90
8939;DHT22;4504;48.810;9.172;2023-05-16T07:02:08;12.30;99.90
8939;DHT22;4504;48.810;9.172;2023-05-16T07:04:36;12.30;99.90
8939;DHT22;4504;48.810;9.172;2023-05-16T07:07:04;12.30;99.90
8939;DHT22;4504;48.810;9.172;2023-05-16T07:09:32;12.30;99.90
8939;DHT22;4504;48.810;9.172;2023-05-16T07:11:59;12.30;99.90
8939;DHT22;4504;48.810;9.172;2023-05-16T07:14:26;12.30;99.90
8939;DHT22;4504;48.810;9.172;2023-05-16T07:16:53;12.30;99.90
8939;DHT22;4504;48.810;9.172;2023-05-16T07:19:20;12.40;99.90
8939;DHT22;4504;48.810;9.172;2023-05-16T07:21:47;12.30;99.90
8939;DHT22;4504;48.810;9.172;2023-05-16T07:24:15;12.30;99.90
8939;DHT22;4504;48.810;9.172;2023-05-16T07:26:42;12.20;99.90
8939;DHT22;4504;48.810;9.172;2023-05-16T07:29:09;12.10;99.90
8939;DHT22;4504;48.810;9.172;2023-05-16T07:31:36;12.00;99.90
8939;DHT22;4504;48.810;9.172;2023-05-16T07:34:03;12.00;99.90
8939;DHT22;4504;48.810;9.172;2023-05-16T07:36:31;12.00;99.90
8939;DHT22;4504;48.810;9.172;2023-05-16T07:38:58;12.10;99.90
8939;DHT22;4504;48.810;9.172;2023-05-16T07:41:26;12.20;99.90
8939;DHT22;4504;48.810;9.172;2023-05-16T07:43:53;12.20;99.90
8939;DHT22;4504;48.810;9.172;2023-05-16T07:46:20;12.30;99.90
8939;DHT22;4504;48.810;9.172;2023-05-16T07:48:47;12.30;99.90
8939;DHT22;4504;48.810;9.172;2023-05-16T07:51:14;12.40;99.90
8939;DHT22;4504;48.810;9.172;2023-05-16T07:53:41;12.50;99.90
8939;DHT22;4504;48.810;9.172;2023-05-16T07:56:08;12.40;99.90
8939;DHT22;4504;48.810;9.172;2023-05-16T07:58:37;12.40;99.90
8939;DHT22;4504;48.810;9.172;2023-05-16T08:01:04;12.50;99.90
8939;DHT22;4504;48.810;9.172;2023-05-16T08:03:31;12.50;99.90
8939;DHT22;4504;48.810;9.172;2023-05-16T08:05:58;12.40;99.90
8939;DHT22;4504;48.810;9.172;2023-05-16T08:08:25;12.40;99.90
8939;DHT22;4504;48.810;9.172;2023-05-16T08:10:52;12.40;99.90
8939;DHT22;4504;48.810;9.172;2023-05-16T08:13:19;12.50;99.90
8939;DHT22;4504;48.810;9.172;2023-05-16T08:15:47;12.50;99.90
8939;DHT22;4504;48.810;9.172;2023-05-16T08:18:14;12.40;99.90
8939;DHT22;4504;48.810;9.172;2023-05-16T08:20:42;12.30;99.90
8939;DHT22;4504;48.810;9.172;2023-05-16T08:23:09;12.30;99.90
8939;DHT22;4504;48.810;9.172;2023-05-16T08:25:36;12.30;99.90
8939;DHT22;4504;48.810;9.172;2023-05-16T08:28:03;12.30;99.90
8939;DHT22;4504;48.810;9.172;2023-05-16T08:30:30;12.30;99.90
8939;DHT22;4504;48.810;9.172;2023-05-16T08:32:58;12.30;99.90
8939;DHT22;4504;48.810;9.172;2023-05-16T08:35:29;12.10;99.90
8939;DHT22;4504;48.810;9.172;2023-05-16T08:37:56;12.10;99.90
8939;DHT22;4504;48.810;9.172;2023-05-16T08:40:25;12.00;99.90
8939;DHT22;4504;48.810;9.172;2023-05-16T08:42:52;12.00;99.90
8939;DHT22;4504;48.810;9.172;2023-05-16T08:45:19;12.00;99.90
8939;DHT22;4504;48.810;9.172;2023-05-16T08:47:48;12.00;99.90
8939;DHT22;4504;48.810;9.172;2023-05-16T08:50:17;12.10;99.90
8939;DHT22;4504;48.810;9.172;2023-05-16T08:52:46;12.10;99.90
8939;DHT22;4504;48.810;9.172;2023-05-16T08:55:18;12.20;99.90
8939;DHT22;4504;48.810;9.172;2023-05-16T08:57:47;12.30;99.90
8939;DHT22;4504;48.810;9.172;2023-05-16T09:00:15;12.40;99.90
8939;DHT22;4504;48.810;9.172;2023-05-16T09:02:44;12.50;99.90
8939;DHT22;4504;48.810;9.172;2023-05-16T09:05:14;12.60;99.90
8939;DHT22;4504;48.810;9.172;2023-05-16T09:07:43;12.70;99.90
8939;DHT22;4504;48.810;9.172;2023-05-16T09:10:10;12.80;99.90
8939;DHT22;4504;48.810;9.172;2023-05-16T09:12:39;12.80;99.90
8939;DHT22;4504;48.810;9.172;2023-05-16T09:15:07;12.70;99.90
8939;DHT22;4504;48.810;9.172;2023-05-16T09:17:35;12.50;99.90
8939;DHT22;4504;48.810;9.172;2023-05-16T09:20:11;12.30;99.90
8939;DHT22;4504;48.810;9.172;2023-05-16T09:22:39;12.40;99.90
8939;DHT22;4504;48.810;9.172;2023-05-16T09:25:08;12.50;99.90
8939;DHT22;4504;48.810;9.172;2023-05-16T09:27:35;12.60;99.90
8939;DHT22;4504;48.810;9.172;2023-05-16T09:30:03;12.80;99.90
8939;DHT22;4504;48.810;9.172;2023-05-16T09:32:30;12.80;99.90
8939;DHT22;4504;48.810;9.172;2023-05-16T09:34:58;13.00;99.90
8939;DHT22;4504;48.810;9.172;2023-05-16T09:37:25;13.10;99.90
8939;DHT22;4504;48.810;9.172;2023-05-16T09:39:53;13.10;99.90
8939;DHT22;4504;48.810;9.172;2023-05-16T09:42:22;13.10;99.90
8939;DHT22;4504;48.810;9.172;2023-05-16T09:44:51;13.10;99.90
8939;DHT22;4504;48.810;9.172;2023-05-16T09:47:21;13.30;99.90
8939;DHT22;4504;48.810;9.172;2023-05-16T09:49:51;13.20;99.90
8939;DHT22;4504;48.810;9.172;2023-05-16T09:52:18;13.30;99.90
8939;DHT22;4504;48.810;9.172;2023-05-16T09:54:46;13.30;99.90
8939;DHT22;4504;48.810;9.172;2023-05-16T09:57:17;13.30;99.90
8939;DHT22;4504;48.810;9.172;2023-05-16T09:59:45;13.20;99.90
8939;DHT22;4504;48.810;9.172;2023-05-16T10:02:13;13.40;99.90
8939;DHT22;4504;48.810;9.172;2023-05-16T10:04:40;13.30;99.90
8939;DHT22;4504;48.810;9.172;2023-05-16T10:07:07;13.50;99.90
8939;DHT22;4504;48.810;9.172;2023-05-16T10:09:36;13.30;99.90
8939;DHT22;4504;48.810;9.172;2023-05-16T10:12:07;13.40;99.90
8939;DHT22;4504;48.810;9.172;2023-05-16T10:14:36;13.40;99.90
8939;DHT22;4504;48.810;9.172;2023-05-16T10:17:06;13.70;99.90
8939;DHT22;4504;48.810;9.172;2023-05-16T10:19:36;13.50;99.90
8939;DHT22;4504;48.810;9.172;2023-05-16T10:22:05;13.50;99.90
8939;DHT22;4504;48.810;9.172;2023-05-16T10:24:38;13.40;99.90
8939;DHT22;4504;48.810;9.172;2023-05-16T10:27:09;13.70;99.90
8939;DHT22;4504;48.810;9.172;2023-05-16T10:29:37;13.80;99.90
8939;DHT22;4504;48.810;9.172;2023-05-16T10:32:07;14.10;99.90
8939;DHT22;4504;48.810;9.172;2023-05-16T10:34:34;14.10;99.90
8939;DHT22;4504;48.810;9.172;2023-05-16T10:37:03;13.90;99.90
8939;DHT22;4504;48.810;9.172;2023-05-16T10:39:31;13.40;99.90
8939;DHT22;4504;48.810;9.172;2023-05-16T10:41:59;13.40;99.90
8939;DHT22;4504;48.810;9.172;2023-05-16T10:44:26;13.40;99.90
8939;DHT22;4504;48.810;9.172;2023-05-16T10:46:57;13.40;99.90
8939;DHT22;4504;48.810;9.172;2023-05-16T10:49:26;13.30;99.90
8939;DHT22;4504;48.810;9.172;2023-05-16T10:52:11;13.10;99.90
8939;DHT22;4504;48.810;9.172;2023-05-16T10:54:41;13.20;99.90
8939;DHT22;4504;48.810;9.172;2023-05-16T10:57:09;13.00;99.90
8939;DHT22;4504;48.810;9.172;2023-05-16T10:59:42;12.90;99.90
8939;DHT22;4504;48.810;9.172;2023-05-16T11:04:52;12.70;99.90
8939;DHT22;4504;48.810;9.172;2023-05-16T11:07:22;12.80;99.90
8939;DHT22;4504;48.810;9.172;2023-05-16T11:10:02;12.80;99.90
8939;DHT22;4504;48.810;9.172;2023-05-16T11:12:51;12.70;99.90
8939;DHT22;4504;48.810;9.172;2023-05-16T11:15:24;12.70;99.90
8939;DHT22;4504;48.810;9.172;2023-05-16T11:18:03;12.70;99.90
8939;DHT22;4504;48.810;9.172;2023-05-16T11:20:33;12.70;99.90
8939;DHT22;4504;48.810;9.172;2023-05-16T11:23:22;12.60;99.90
8939;DHT22;4504;48.810;9.172;2023-05-16T11:25:53;12.50;99.90
8939;DHT22;4504;48.810;9.172;2023-05-16T11:28:23;12.50;99.90
8939;DHT22;4504;48.810;9.172;2023-05-16T11:30:51;12.30;99.90
8939;DHT22;4504;48.810;9.172;2023-05-16T11:33:21;12.20;99.90
8939;DHT22;4504;48.810;9.172;2023-05-16T11:36:03;12.20;99.90
8939;DHT22;4504;48.810;9.172;2023-05-16T11:38:30;12.30;99.90
8939;DHT22;4504;48.810;9.172;2023-05-16T11:41:02;12.40;99.90
8939;DHT22;4504;48.810;9.172;2023-05-16T11:43:36;12.50;99.90
8939;DHT22;4504;48.810;9.172;2023-05-16T11:46:03;12.50;99.90
8939;DHT22;4504;48.810;9.172;2023-05-16T11:48:30;12.30;99.90
8939;DHT22;4504;48.810;9.172;2023-05-16T11:50:57;12.20;99.90
8939;DHT22;4504;48.810;9.172;2023-05-16T11:53:26;12.20;99.90
8939;DHT22;4504;48.810;9.172;2023-05-16T11:55:53;12.20;99.90
8939;DHT22;4504;48.810;9.172;2023-05-16T11:58:21;12.20;99.90
8939;DHT22;4504;48.810;9.172;2023-05-16T12:00:48;12.20;99.90
8939;DHT22;4504;48.810;9.172;2023-05-16T12:03:17;12.20;99.90
8939;DHT22;4504;48.810;9.172;2023-05-16T12:05:52;12.30;99.90
8939;DHT22;4504;48.810;9.172;2023-05-16T12:08:19;12.40;99.90
8939;DHT22;4504;48.810;9.172;2023-05-16T12:10:50;12.50;99.90
8939;DHT22;4504;48.810;9.172;2023-05-16T12:13:18;12.40;99.90
8939;DHT22;4504;48.810;9.172;2023-05-16T12:15:46;12.40;99.90
8939;DHT22;4504;48.810;9.172;2023-05-16T12:18:13;12.30;99.90
8939;DHT22;4504;48.810;9.172;2023-05-16T12:20:42;12.20;99.90
8939;DHT22;4504;48.810;9.172;2023-05-16T12:23:13;12.30;99.90
8939;DHT22;4504;48.810;9.172;2023-05-16T12:25:44;12.40;99.90
8939;DHT22;4504;48.810;9.172;2023-05-16T12:28:14;12.60;99.90
8939;DHT22;4504;48.810;9.172;2023-05-16T12:30:42;12.80;99.90
8939;DHT22;4504;48.810;9.172;2023-05-16T12:33:10;12.80;99.90
8939;DHT22;4504;48.810;9.172;2023-05-16T12:35:39;12.90;99.90
8939;DHT22;4504;48.810;9.172;2023-05-16T12:38:08;12.90;99.90
8939;DHT22;4504;48.810;9.172;2023-05-16T12:40:36;13.00;99.90
8939;DHT22;4504;48.810;9.172;2023-05-16T12:43:04;13.10;99.90
8939;DHT22;4504;48.810;9.172;2023-05-16T12:45:32;13.10;99.90
8939;DHT22;4504;48.810;9.172;2023-05-16T12:48:03;13.10;99.90
8939;DHT22;4504;48.810;9.172;2023-05-16T12:50:32;13.00;99.90
8939;DHT22;4504;48.810;9.172;2023-05-16T12:52:59;12.90;99.90
8939;DHT22;4504;48.810;9.172;2023-05-16T12:55:26;12.70;99.90
8939;DHT22;4504;48.810;9.172;2023-05-16T12:57:55;12.50;99.90
8939;DHT22;4504;48.810;9.172;2023-05-16T13:00:22;12.40;99.90
8939;DHT22;4504;48.810;9.172;2023-05-16T13:02:50;12.50;99.90
8939;DHT22;4504;48.810;9.172;2023-05-16T13:05:17;12.40;99.90
8939;DHT22;4504;48.810;9.172;2023-05-16T13:07:46;12.20;99.90
8939;DHT22;4504;48.810;9.172;2023-05-16T13:10:17;12.10;99.90
8939;DHT22;4504;48.810;9.172;2023-05-16T13:12:44;12.20;99.90
8939;DHT22;4504;48.810;9.172;2023-05-16T13:15:12;12.20;99.90
8939;DHT22;4504;48.810;9.172;2023-05-16T13:17:41;12.20;99.90
8939;DHT22;4504;48.810;9.172;2023-05-16T13:20:11;12.20;99.90
8939;DHT22;4504;48.810;9.172;2023-05-16T13:22:39;12.30;99.90
8939;DHT22;4504;48.810;9.172;2023-05-16T13:25:07;12.30;99.90
8939;DHT22;4504;48.810;9.172;2023-05-16T13:27:35;12.30;99.90
8939;DHT22;4504;48.810;9.172;2023-05-16T13:30:02;12.10;99.90
8939;DHT22;4504;48.810;9.172;2023-05-16T13:32:32;12.20;99.90
8939;DHT22;4504;48.810;9.172;2023-05-16T13:34:59;12.10;99.90
8939;DHT22;4504;48.810;9.172;2023-05-16T13:37:27;12.00;99.90
8939;DHT22;4504;48.810;9.172;2023-05-16T13:39:54;12.10;99.90
8939;DHT22;4504;48.810;9.172;2023-05-16T13:42:21;12.00;99.90
8939;DHT22;4504;48.810;9.172;2023-05-16T13:44:48;12.10;99.90
8939;DHT22;4504;48.810;9.172;2023-05-16T13:47:16;12.10;99.90
8939;DHT22;4504;48.810;9.172;2023-05-16T13:49:43;12.20;99.90
8939;DHT22;4504;48.810;9.172;2023-05-16T13:52:10;12.20;99.90
8939;DHT22;4504;48.810;9.172;2023-05-16T13:54:38;12.10;99.90
8939;DHT22;4504;48.810;9.172;2023-05-16T13:57:06;12.10;99.90
8939;DHT22;4504;48.810;9.172;2023-05-16T13:59:33;12.10;99.90
8939;DHT22;4504;48.810;9.172;2023-05-16T14:02:00;12.20;99.90
8939;DHT22;4504;48.810;9.172;2023-05-16T14:04:27;12.20;99.90
8939;DHT22;4504;48.810;9.172;2023-05-16T14:06:54;12.10;99.90
8939;DHT22;4504;48.810;9.172;2023-05-16T14:09:21;12.10;99.90
8939;DHT22;4504;48.810;9.172;2023-05-16T14:11:49;12.10;99.90
8939;DHT22;4504;48.810;9.172;2023-05-16T14:14:16;12.20;99.90
8939;DHT22;4504;48.810;9.172;2023-05-16T14:16:43;12.30;99.90
8939;DHT22;4504;48.810;9.172;2023-05-16T14:19:11;12.40;99.90
8939;DHT22;4504;48.810;9.172;2023-05-16T14:21:38;12.50;99.90
8939;DHT22;4504;48.810;9.172;2023-05-16T14:24:06;12.60;99.90
8939;DHT22;4504;48.810;9.172;2023-05-16T14:26:33;12.60;99.90
8939;DHT22;4504;48.810;9.172;2023-05-16T14:29:01;12.50;99.90
8939;DHT22;4504;48.810;9.172;2023-05-16T14:31:28;12.40;99.90
8939;DHT22;4504;48.810;9.172;2023-05-16T14:33:56;12.40;99.90
8939;DHT22;4504;48.810;9.172;2023-05-16T14:36:23;12.30;99.90
8939;DHT22;4504;48.810;9.172;2023-05-16T14:38:50;12.30;99.90
8939;DHT22;4504;48.810;9.172;2023-05-16T14:41:17;12.40;99.90
8939;DHT22;4504;48.810;9.172;2023-05-16T14:43:44;12.50;99.90
8939;DHT22;4504;48.810;9.172;2023-05-16T14:46:13;12.60;99.90
8939;DHT22;4504;48.810;9.172;2023-05-16T14:48:40;12.60;99.90
8939;DHT22;4504;48.810;9.172;2023-05-16T14:51:07;12.60;99.90
8939;DHT22;4504;48.810;9.172;2023-05-16T14:53:34;12.80;99.90
8939;DHT22;4504;48.810;9.172;2023-05-16T14:56:01;12.70;99.90
8939;DHT22;4504;48.810;9.172;2023-05-16T14:58:28;12.70;99.90
8939;DHT22;4504;48.810;9.172;2023-05-16T15:00:55;12.80;99.90
8939;DHT22;4504;48.810;9.172;2023-05-16T15:03:24;12.80;99.90
8939;DHT22;4504;48.810;9.172;2023-05-16T15:05:51;12.80;99.90
8939;DHT22;4504;48.810;9.172;2023-05-16T15:08:19;12.90;99.90
8939;DHT22;4504;48.810;9.172;2023-05-16T15:10:46;12.90;99.90
8939;DHT22;4504;48.810;9.172;2023-05-16T15:13:13;13.00;99.90
8939;DHT22;4504;48.810;9.172;2023-05-16T15:15:40;13.00;99.90
8939;DHT22;4504;48.810;9.172;2023-05-16T15:18:07;13.00;99.90
8939;DHT22;4504;48.810;9.172;2023-05-16T15:20:37;13.00;99.90
8939;DHT22;4504;48.810;9.172;2023-05-16T15:23:03;13.00;99.90
8939;DHT22;4504;48.810;9.172;2023-05-16T15:25:30;13.10;99.90
8939;DHT22;4504;48.810;9.172;2023-05-16T15:27:57;13.00;99.90
8939;DHT22;4504;48.810;9.172;2023-05-16T15:30:24;13.00;99.90
